aviador You're here:

CYBK Decoded Metar

BAKER LAKE in NU, CANADA
Report Time2018-02-17 23:00:00
UTC Time2018-02-17 23:42:32
Flight Rules vfr VFR
Wind330° at 22 kt
W.Decomp.*RWY 34: 21.8 kt HW 2.7 kt LCW
W.Rank330° ranks 2
Current wind is above 330° avg. (14.3)
Visibility9999 m
Phenomena:Low Drifting Snow
Ice Crystals
Clouds:Few 160 Hf
Expected CloudBase > 2,000 ft AGL from Temp-Dew spread
CeilingNone
Temp-43°C (ISA -58)
Dew Point-48°C (57% RH)
AAT-54.9°C
QNH1010 hPa
Density Alt-7,690 ft
Elevation59 ft
Report Wrong Elevation
Raw Report
CYBK 172300Z 33022KT 7SM IC DRSN FEW160 M43/M48 A2983 RMK AC2
SLP108=

Extra information for CYBK:More info

Metar Taf Metar & Taf Last 4 Metars F.Rules Stats Wind Profile Meteogram Temp Stats Airport Information Weather charts Add Link Nearby VenuesMetar ALERT Operation Metar Decoded Social comments